Time;durP1;ratioP1;P1;durP2;ratioP2;P2;SDS_P1;SDS_P2;PMS_P1;PMS_P2;Temp;Humidity;BMP_temperature;BMP_pressure;BME280_temperature;BME280_humidity;BME280_pressure;Samples;Min_cycle;Max_cycle;Signal;HPM_P1;HPM_P2
2021/05/16 00:01:10;;;;;;;10.23;2.27;;;9.10;93.70;;;;;;5092980;28;20393;-79
2021/05/16 00:03:37;;;;;;;6.80;2.00;;;9.00;93.90;;;;;;5093331;28;20837;-78
2021/05/16 00:06:03;;;;;;;12.85;2.55;;;9.10;93.60;;;;;;5092876;28;20386;-79
2021/05/16 00:08:29;;;;;;;9.45;2.10;;;9.10;93.60;;;;;;5092023;28;20711;-78
2021/05/16 00:10:55;;;;;;;14.23;2.30;;;9.10;93.70;;;;;;5092353;28;20413;-78
2021/05/16 00:13:21;;;;;;;9.23;2.40;;;9.10;93.70;;;;;;5092247;28;20382;-79
2021/05/16 00:15:47;;;;;;;8.63;2.47;;;9.20;93.60;;;;;;5092887;28;20466;-79
2021/05/16 00:18:13;;;;;;;15.20;2.43;;;9.20;93.40;;;;;;5092086;28;20381;-78
2021/05/16 00:20:38;;;;;;;12.97;2.33;;;9.20;93.40;;;;;;5074723;28;20397;-78
2021/05/16 00:23:04;;;;;;;13.23;2.50;;;9.20;93.60;;;;;;5092502;28;20405;-79
2021/05/16 00:25:31;;;;;;;10.27;2.30;;;9.10;93.80;;;;;;5092710;28;20493;-78
2021/05/16 00:27:57;;;;;;;11.05;2.20;;;9.20;93.90;;;;;;5092038;28;20398;-78
2021/05/16 00:30:25;;;;;;;10.88;2.20;;;9.20;93.80;;;;;;5092373;28;20440;-78
2021/05/16 00:32:53;;;;;;;13.10;2.20;;;9.20;94.00;;;;;;5074167;28;20390;-78
2021/05/16 00:35:21;;;;;;;9.77;2.28;;;9.10;93.80;;;;;;5092518;28;20607;-78
2021/05/16 00:37:47;;;;;;;11.82;2.92;;;9.20;93.70;;;;;;5092166;28;20370;-78
2021/05/16 00:40:14;;;;;;;13.38;2.83;;;9.20;93.90;;;;;;5092479;28;20722;-78
2021/05/16 00:42:41;;;;;;;14.75;2.30;;;9.20;93.70;;;;;;5092514;28;20370;-79
2021/05/16 00:45:18;;;;;;;11.27;2.10;;;9.20;93.60;;;;;;5092265;28;20381;-78
2021/05/16 00:47:58;;;;;;;13.15;2.90;;;9.20;93.80;;;;;;5091829;28;20374;-78
2021/05/16 00:50:45;;;;;;;14.45;2.13;;;9.30;93.60;;;;;;5091972;28;20431;-78
2021/05/16 00:53:11;;;;;;;18.83;2.95;;;9.30;93.70;;;;;;5092223;28;20386;-78
2021/05/16 00:55:37;;;;;;;9.07;2.50;;;9.30;93.60;;;;;;5092044;28;20795;-78
2021/05/16 00:58:06;;;;;;;11.18;2.97;;;9.30;93.60;;;;;;5073143;28;20858;-78
2021/05/16 01:00:42;;;;;;;16.73;2.57;;;9.30;93.40;;;;;;5073948;28;20404;-78
2021/05/16 01:03:09;;;;;;;13.20;2.40;;;9.40;93.30;;;;;;5091700;28;20370;-78
2021/05/16 01:05:35;;;;;;;16.13;2.65;;;9.30;93.10;;;;;;5092015;28;20427;-78
2021/05/16 01:08:03;;;;;;;16.35;2.80;;;9.40;92.70;;;;;;5073662;28;20692;-78
2021/05/16 01:10:29;;;;;;;10.23;2.30;;;9.20;92.80;;;;;;5091854;28;20406;-78
2021/05/16 01:12:56;;;;;;;16.88;2.55;;;9.20;93.20;;;;;;5073850;28;20442;-78
2021/05/16 01:15:24;;;;;;;11.88;2.65;;;9.20;93.00;;;;;;5092120;28;20722;-78
2021/05/16 01:17:51;;;;;;;18.92;2.40;;;9.30;92.90;;;;;;5091317;28;20369;-78
2021/05/16 01:20:21;;;;;;;17.30;2.65;;;9.20;92.80;;;;;;5091622;28;20386;-78
2021/05/16 01:22:59;;;;;;;15.35;2.45;;;9.20;93.20;;;;;;5091549;28;21036;-77
2021/05/16 01:25:26;;;;;;;15.55;2.58;;;9.20;92.70;;;;;;5091465;28;20378;-78
2021/05/16 01:27:52;;;;;;;13.70;2.50;;;9.30;92.70;;;;;;5091075;28;20455;-78
2021/05/16 01:30:19;;;;;;;14.63;2.70;;;9.30;92.70;;;;;;5091225;28;20408;-78
2021/05/16 01:32:45;;;;;;;20.17;3.10;;;9.30;92.10;;;;;;5073118;28;20918;-78
2021/05/16 01:35:11;;;;;;;14.23;2.10;;;9.30;92.70;;;;;;5073057;28;20386;-77
2021/05/16 01:37:36;;;;;;;14.25;2.70;;;9.40;92.50;;;;;;5072597;28;20518;-78
2021/05/16 01:40:04;;;;;;;17.77;2.83;;;9.40;92.20;;;;;;5091025;28;20415;-78
2021/05/16 01:42:30;;;;;;;10.35;2.10;;;9.30;92.10;;;;;;5090735;28;20393;-80
2021/05/16 01:45:02;;;;;;;16.13;2.20;;;9.30;92.40;;;;;;5072776;28;20382;-78
2021/05/16 01:47:28;;;;;;;13.35;2.80;;;9.30;92.40;;;;;;5072317;28;20555;-78
2021/05/16 01:50:01;;;;;;;16.03;3.07;;;9.30;92.40;;;;;;5090860;28;20381;-78
2021/05/16 01:52:31;;;;;;;20.90;2.60;;;9.30;92.50;;;;;;5090851;28;20458;-78
2021/05/16 01:54:56;;;;;;;19.33;2.55;;;9.30;92.10;;;;;;5091035;28;20372;-77
2021/05/16 01:57:23;;;;;;;9.50;1.95;;;9.30;92.20;;;;;;5090433;28;20419;-79
2021/05/16 01:59:49;;;;;;;15.85;2.00;;;9.30;92.40;;;;;;5072687;28;20436;-78
2021/05/16 02:02:15;;;;;;;19.70;2.25;;;9.40;92.00;;;;;;5072240;28;20374;-78
2021/05/16 02:04:41;;;;;;;18.10;2.55;;;9.40;92.00;;;;;;5072811;28;20465;-79
2021/05/16 02:07:07;;;;;;;14.18;2.35;;;9.30;92.10;;;;;;5089965;28;20450;-78
2021/05/16 02:09:33;;;;;;;18.10;2.28;;;9.40;92.00;;;;;;5072796;28;20386;-78
2021/05/16 02:11:58;;;;;;;10.93;2.78;;;9.40;91.60;;;;;;5090043;28;20482;-78
2021/05/16 02:14:29;;;;;;;16.38;2.17;;;9.40;91.10;;;;;;5090817;28;20749;-79
2021/05/16 02:16:56;;;;;;;17.08;2.25;;;9.40;91.40;;;;;;5089362;28;20527;-79
2021/05/16 02:19:22;;;;;;;16.80;2.50;;;9.30;91.80;;;;;;5072594;28;20712;-78
2021/05/16 02:21:48;;;;;;;12.17;2.27;;;9.30;91.50;;;;;;5072476;28;20416;-79
2021/05/16 02:24:14;;;;;;;13.50;2.83;;;9.30;91.10;;;;;;5090766;28;20908;-78
2021/05/16 02:26:40;;;;;;;16.45;2.45;;;9.30;91.00;;;;;;5071879;28;20378;-78
2021/05/16 02:29:06;;;;;;;11.77;2.20;;;9.30;91.10;;;;;;5072183;28;20393;-78
2021/05/16 02:31:33;;;;;;;14.13;2.67;;;9.20;91.50;;;;;;5090852;28;20437;-79
2021/05/16 02:33:59;;;;;;;12.10;2.60;;;9.30;91.10;;;;;;5071939;28;20382;-78
2021/05/16 02:36:25;;;;;;;10.57;1.95;;;9.40;90.80;;;;;;5089919;28;20378;-79
2021/05/16 02:38:51;;;;;;;14.65;2.10;;;9.30;90.60;;;;;;5089929;28;20377;-79
2021/05/16 02:41:17;;;;;;;13.05;2.22;;;9.20;91.00;;;;;;5090775;28;20450;-79
2021/05/16 02:43:43;;;;;;;15.88;2.70;;;9.20;90.70;;;;;;5090043;28;20370;-78
2021/05/16 02:46:09;;;;;;;12.57;1.85;;;9.20;90.50;;;;;;5090518;28;20381;-78
2021/05/16 02:48:34;;;;;;;20.60;2.30;;;9.20;90.50;;;;;;5089700;28;20414;-79
2021/05/16 02:51:00;;;;;;;12.75;1.88;;;9.20;90.60;;;;;;5090263;28;20437;-78
2021/05/16 02:53:25;;;;;;;15.10;2.05;;;9.30;91.00;;;;;;5090318;28;20858;-78
2021/05/16 02:55:51;;;;;;;19.77;2.08;;;9.20;90.10;;;;;;5072121;28;20386;-78
2021/05/16 02:58:16;;;;;;;13.32;2.30;;;9.30;90.40;;;;;;5071581;28;20397;-78
2021/05/16 03:00:42;;;;;;;15.53;2.67;;;9.30;90.00;;;;;;5089976;28;20459;-80
2021/05/16 03:03:07;;;;;;;15.67;1.83;;;9.30;90.10;;;;;;5090255;28;20367;-79
2021/05/16 03:05:34;;;;;;;15.20;1.93;;;9.20;89.90;;;;;;5090456;28;20707;-79
2021/05/16 03:07:59;;;;;;;12.38;2.22;;;9.20;89.50;;;;;;5089756;28;20477;-78
2021/05/16 03:10:25;;;;;;;17.43;2.60;;;9.30;90.00;;;;;;5089909;28;20493;-80
2021/05/16 03:12:51;;;;;;;14.80;2.20;;;9.20;89.90;;;;;;5090057;28;20377;-78
2021/05/16 03:15:17;;;;;;;14.40;2.28;;;9.30;90.30;;;;;;5071771;28;20656;-79
2021/05/16 03:17:42;;;;;;;13.50;2.13;;;9.20;89.50;;;;;;5089749;28;20996;-79
2021/05/16 03:20:08;;;;;;;14.70;2.25;;;9.20;89.60;;;;;;5089704;28;21010;-79
2021/05/16 03:22:34;;;;;;;17.30;2.00;;;9.30;89.80;;;;;;5090237;28;20374;-78
2021/05/16 03:25:00;;;;;;;17.47;2.57;;;9.20;90.40;;;;;;5088319;28;20373;-79
2021/05/16 03:27:25;;;;;;;16.73;2.27;;;9.20;90.20;;;;;;5090126;28;20483;-80
2021/05/16 03:29:51;;;;;;;17.58;2.05;;;9.20;89.90;;;;;;5093250;28;20374;-78
2021/05/16 03:32:16;;;;;;;18.75;3.67;;;9.30;90.30;;;;;;5093590;28;20381;-78
2021/05/16 03:34:42;;;;;;;10.60;2.20;;;9.20;89.50;;;;;;5093469;28;20378;-78
2021/05/16 03:37:07;;;;;;;12.37;1.90;;;9.30;89.60;;;;;;5093145;28;20382;-79
2021/05/16 03:39:33;;;;;;;14.13;2.27;;;9.20;89.50;;;;;;5093836;28;20830;-79
2021/05/16 03:41:59;;;;;;;19.07;2.27;;;9.10;89.80;;;;;;5093315;28;20807;-78
2021/05/16 03:44:25;;;;;;;13.57;2.30;;;9.20;90.50;;;;;;5093657;28;20415;-78
2021/05/16 03:46:51;;;;;;;16.00;2.75;;;9.20;89.90;;;;;;5092839;28;20375;-78
2021/05/16 03:49:17;;;;;;;17.25;2.53;;;9.10;90.10;;;;;;5093309;28;20388;-79
2021/05/16 03:51:46;;;;;;;18.48;2.35;;;9.20;90.00;;;;;;5092984;28;20707;-78
2021/05/16 03:54:12;;;;;;;14.68;2.15;;;9.20;90.20;;;;;;5075302;28;20382;-79
2021/05/16 03:56:38;;;;;;;17.30;2.58;;;9.10;90.20;;;;;;5074065;28;20391;-78
2021/05/16 03:59:04;;;;;;;14.82;2.63;;;9.20;90.10;;;;;;5093060;28;20374;-78
2021/05/16 04:01:30;;;;;;;13.70;2.20;;;9.10;90.40;;;;;;5075146;28;20383;-78
2021/05/16 04:03:56;;;;;;;11.52;2.45;;;9.10;90.30;;;;;;5092576;28;20382;-78
2021/05/16 04:06:21;;;;;;;20.80;2.87;;;9.10;90.60;;;;;;5094041;28;20386;-78
2021/05/16 04:08:47;;;;;;;12.67;1.90;;;9.10;90.10;;;;;;5107740;28;20923;-79
2021/05/16 04:11:12;;;;;;;15.17;2.33;;;9.10;90.30;;;;;;5092711;28;20398;-78
2021/05/16 04:13:38;;;;;;;15.65;2.15;;;9.10;90.00;;;;;;5092521;28;20374;-78
2021/05/16 04:16:04;;;;;;;16.73;3.03;;;9.10;90.10;;;;;;5093127;28;20394;-78
2021/05/16 04:18:30;;;;;;;14.10;2.10;;;9.10;90.40;;;;;;5091834;28;20385;-78
2021/05/16 04:20:56;;;;;;;12.23;1.83;;;9.10;90.50;;;;;;5074292;28;20436;-78
2021/05/16 04:23:21;;;;;;;10.97;1.93;;;9.00;90.40;;;;;;5091733;28;20375;-79
2021/05/16 04:25:47;;;;;;;21.80;2.83;;;9.10;90.50;;;;;;5092475;28;20459;-78
2021/05/16 04:28:13;;;;;;;15.73;2.97;;;9.10;90.60;;;;;;5091864;28;20745;-78
2021/05/16 04:30:38;;;;;;;10.43;2.38;;;9.10;90.50;;;;;;5073310;28;20815;-79
2021/05/16 04:33:04;;;;;;;12.20;2.20;;;9.10;90.20;;;;;;5092261;28;20382;-78
2021/05/16 04:35:29;;;;;;;19.40;2.30;;;9.10;90.30;;;;;;5092128;28;20377;-80
2021/05/16 04:37:55;;;;;;;10.73;2.30;;;9.20;90.30;;;;;;5091494;28;20405;-79
2021/05/16 04:40:21;;;;;;;17.60;2.95;;;9.10;90.10;;;;;;5091910;28;20473;-80
2021/05/16 04:42:46;;;;;;;14.93;2.70;;;9.10;90.10;;;;;;5073901;28;20386;-78
2021/05/16 04:45:12;;;;;;;9.23;2.00;;;9.20;90.30;;;;;;5073979;28;20481;-78
2021/05/16 04:47:38;;;;;;;14.18;2.45;;;9.20;89.70;;;;;;5091731;28;20374;-78
2021/05/16 04:50:05;;;;;;;10.98;2.20;;;9.30;90.00;;;;;;5091935;28;20427;-79
2021/05/16 04:52:30;;;;;;;9.02;2.17;;;9.40;89.60;;;;;;5091690;28;20465;-79
2021/05/16 04:54:56;;;;;;;12.63;2.33;;;9.30;89.80;;;;;;5091915;28;20465;-79
2021/05/16 04:57:21;;;;;;;19.48;3.60;;;9.40;89.60;;;;;;5091777;28;20374;-80
2021/05/16 04:59:49;;;;;;;13.47;2.97;;;9.40;89.80;;;;;;5091723;28;20374;-79
2021/05/16 05:02:15;;;;;;;12.90;2.40;;;9.40;89.70;;;;;;5073332;28;20385;-80
2021/05/16 05:04:41;;;;;;;14.45;2.97;;;9.40;89.60;;;;;;5091888;28;20370;-78
2021/05/16 05:07:07;;;;;;;10.75;2.47;;;9.40;90.00;;;;;;5091044;28;20378;-79
2021/05/16 05:09:35;;;;;;;13.68;3.22;;;9.40;89.80;;;;;;5091399;28;20454;-78
2021/05/16 05:12:01;;;;;;;10.35;2.97;;;9.40;89.80;;;;;;5091585;28;20437;-79
2021/05/16 05:14:28;;;;;;;12.00;2.63;;;9.40;89.80;;;;;;5091744;28;20366;-78
2021/05/16 05:16:55;;;;;;;7.80;2.07;;;9.50;89.80;;;;;;5091341;28;20381;-79
2021/05/16 05:19:20;;;;;;;10.45;2.25;;;9.60;89.40;;;;;;5091954;28;20371;-78
2021/05/16 05:21:46;;;;;;;13.05;2.45;;;9.70;88.80;;;;;;5091382;28;20393;-78
2021/05/16 05:24:11;;;;;;;12.10;2.30;;;9.70;88.90;;;;;;5091747;28;20386;-78
2021/05/16 05:26:37;;;;;;;11.03;2.57;;;9.60;89.30;;;;;;5072657;28;20719;-79
2021/05/16 05:29:03;;;;;;;18.23;3.10;;;9.60;89.30;;;;;;5091214;28;20595;-80
2021/05/16 05:31:29;;;;;;;15.27;3.17;;;9.70;88.60;;;;;;5091243;28;20447;-78
2021/05/16 05:33:54;;;;;;;14.83;2.77;;;9.80;88.60;;;;;;5091384;28;20374;-78
2021/05/16 05:36:23;;;;;;;9.00;2.80;;;9.90;89.00;;;;;;5090634;28;20453;-82
2021/05/16 05:38:49;;;;;;;11.83;2.00;;;9.90;88.10;;;;;;5090643;28;20370;-80
2021/05/16 05:41:14;;;;;;;11.93;2.50;;;9.90;88.50;;;;;;5073171;28;20404;-82
2021/05/16 05:43:40;;;;;;;9.20;2.40;;;9.90;89.10;;;;;;5072546;28;20378;-81
2021/05/16 05:46:06;;;;;;;12.60;2.77;;;9.90;88.80;;;;;;5091484;28;20473;-82
2021/05/16 05:48:32;;;;;;;16.95;2.40;;;9.90;88.60;;;;;;5072282;28;20466;-82
2021/05/16 05:50:58;;;;;;;14.70;3.05;;;10.00;88.70;;;;;;5090463;28;20492;-83
2021/05/16 05:53:24;;;;;;;13.90;2.45;;;10.00;88.70;;;;;;5091178;28;20866;-80
2021/05/16 05:55:49;;;;;;;15.68;2.80;;;10.00;88.10;;;;;;5073067;28;20406;-81
2021/05/16 05:58:15;;;;;;;14.23;2.97;;;10.10;87.50;;;;;;5090391;28;20414;-81
2021/05/16 06:00:40;;;;;;;16.10;2.33;;;10.10;87.10;;;;;;5072641;28;20382;-83
2021/05/16 06:03:06;;;;;;;14.03;2.17;;;10.10;87.90;;;;;;5072761;28;20384;-82
2021/05/16 06:05:31;;;;;;;13.77;2.60;;;10.10;87.70;;;;;;5090609;28;20366;-81
2021/05/16 06:07:57;;;;;;;14.43;3.30;;;10.10;87.80;;;;;;5091107;28;20381;-81
2021/05/16 06:10:24;;;;;;;11.80;2.17;;;10.20;87.70;;;;;;5090418;28;20882;-81
2021/05/16 06:12:50;;;;;;;14.75;2.70;;;10.30;88.00;;;;;;5090815;28;20406;-81
2021/05/16 06:15:16;;;;;;;24.87;4.13;;;10.40;88.20;;;;;;5090331;28;20912;-82
2021/05/16 06:17:42;;;;;;;20.23;3.00;;;10.40;87.50;;;;;;5090377;28;20401;-83
2021/05/16 06:20:08;;;;;;;12.67;2.70;;;10.40;86.70;;;;;;5072481;28;20742;-82
2021/05/16 06:22:34;;;;;;;19.00;2.92;;;10.60;87.50;;;;;;5072406;28;20381;-79
2021/05/16 06:25:00;;;;;;;13.25;2.58;;;10.60;85.70;;;;;;5090530;28;20457;-78
2021/05/16 06:27:26;;;;;;;11.90;2.22;;;10.50;86.70;;;;;;5072157;28;20873;-78
2021/05/16 06:29:51;;;;;;;17.50;3.85;;;10.60;86.20;;;;;;5071971;28;20385;-81
2021/05/16 06:32:17;;;;;;;15.07;3.00;;;10.50;85.90;;;;;;5090276;28;20593;-79
2021/05/16 06:34:43;;;;;;;16.25;2.42;;;10.40;86.50;;;;;;5090705;28;20373;-79
2021/05/16 06:37:08;;;;;;;14.20;2.57;;;10.50;86.40;;;;;;5089870;28;20778;-78
2021/05/16 06:39:34;;;;;;;19.13;3.38;;;10.60;86.60;;;;;;5090531;28;20378;-79
2021/05/16 06:42:00;;;;;;;12.53;2.53;;;10.70;85.70;;;;;;5090417;28;20499;-78
2021/05/16 06:44:26;;;;;;;17.63;3.30;;;10.60;85.60;;;;;;5090541;28;20384;-79
2021/05/16 06:46:52;;;;;;;20.05;3.85;;;10.70;86.10;;;;;;5089868;28;20412;-79
2021/05/16 06:49:18;;;;;;;18.13;3.85;;;10.60;85.40;;;;;;5089771;28;20764;-78
2021/05/16 06:51:44;;;;;;;19.52;3.40;;;10.70;85.10;;;;;;5090238;28;20480;-78
2021/05/16 06:54:10;;;;;;;12.50;2.90;;;10.80;86.20;;;;;;5072473;28;20380;-79
2021/05/16 06:56:36;;;;;;;17.73;2.80;;;10.70;86.50;;;;;;5090052;28;20702;-82
2021/05/16 06:59:02;;;;;;;18.05;2.60;;;10.80;86.00;;;;;;5090351;28;20462;-81
2021/05/16 07:01:28;;;;;;;13.77;2.97;;;10.80;85.70;;;;;;5091401;28;20374;-81
2021/05/16 07:03:54;;;;;;;17.25;3.28;;;10.90;84.70;;;;;;5076408;28;20722;-82
2021/05/16 07:06:19;;;;;;;14.13;2.70;;;11.00;86.30;;;;;;5076310;28;20374;-81
2021/05/16 07:08:47;;;;;;;18.00;3.50;;;10.90;86.20;;;;;;5093793;28;20389;-81
2021/05/16 07:11:13;;;;;;;12.95;3.30;;;10.90;87.00;;;;;;5094036;28;20405;-82
2021/05/16 07:13:38;;;;;;;15.13;2.80;;;10.70;85.10;;;;;;5094361;28;20386;-81
2021/05/16 07:16:04;;;;;;;17.70;3.53;;;10.70;85.80;;;;;;5075814;28;20426;-81
2021/05/16 07:18:30;;;;;;;16.30;4.15;;;10.70;85.70;;;;;;5075331;28;20385;-81
2021/05/16 07:20:55;;;;;;;16.70;2.80;;;10.80;86.50;;;;;;5094230;28;20378;-83
2021/05/16 07:23:21;;;;;;;14.00;2.78;;;10.70;85.10;;;;;;5093634;28;20728;-77
2021/05/16 07:25:46;;;;;;;16.98;3.05;;;10.80;85.90;;;;;;5094075;28;20366;-79
2021/05/16 07:28:12;;;;;;;13.37;2.77;;;10.80;85.40;;;;;;5093191;28;20370;-84
2021/05/16 07:30:38;;;;;;;13.77;3.50;;;10.80;86.40;;;;;;5093699;28;20394;-82
2021/05/16 07:33:04;;;;;;;10.20;2.90;;;10.80;86.20;;;;;;5093784;28;20622;-80
2021/05/16 07:35:30;;;;;;;12.07;2.67;;;10.80;86.20;;;;;;5093384;28;20380;-79
2021/05/16 07:37:55;;;;;;;13.90;3.20;;;10.90;85.90;;;;;;5075378;28;20868;-79
2021/05/16 07:40:21;;;;;;;11.63;2.77;;;10.90;85.70;;;;;;5093370;28;20382;-80
2021/05/16 07:42:49;;;;;;;15.45;2.80;;;11.00;85.60;;;;;;5093459;28;20369;-80
2021/05/16 07:45:16;;;;;;;16.08;2.70;;;11.20;85.40;;;;;;5092254;28;20374;-81
2021/05/16 07:47:41;;;;;;;12.85;3.47;;;11.10;85.00;;;;;;5091188;28;20416;-80
2021/05/16 07:50:09;;;;;;;16.23;3.10;;;11.10;85.20;;;;;;5092089;28;20366;-79
2021/05/16 07:52:35;;;;;;;15.65;3.30;;;11.10;85.50;;;;;;5074038;28;20394;-80
2021/05/16 07:55:00;;;;;;;14.55;3.20;;;11.00;85.20;;;;;;5092184;28;20383;-81
2021/05/16 07:57:26;;;;;;;15.77;3.53;;;11.10;85.50;;;;;;5107467;28;20386;-81
2021/05/16 07:59:52;;;;;;;16.90;4.13;;;11.00;86.10;;;;;;5107874;28;20477;-80
2021/05/16 08:02:17;;;;;;;11.52;2.80;;;11.00;86.50;;;;;;5091443;28;20370;-80
2021/05/16 08:04:43;;;;;;;13.50;3.40;;;11.10;87.80;;;;;;5092150;28;20864;-76
2021/05/16 08:07:09;;;;;;;21.60;3.50;;;10.90;86.70;;;;;;5107463;28;20382;-79
2021/05/16 08:09:34;;;;;;;14.20;3.83;;;11.10;88.00;;;;;;5074716;28;20715;-79
2021/05/16 08:12:00;;;;;;;13.17;3.10;;;11.00;87.10;;;;;;5092378;28;20475;-79
2021/05/16 08:14:28;;;;;;;14.00;3.40;;;11.00;87.10;;;;;;5074050;28;20458;-78
2021/05/16 08:16:55;;;;;;;17.08;3.20;;;11.10;87.40;;;;;;5091739;28;20746;-78
2021/05/16 08:19:21;;;;;;;15.55;3.03;;;11.10;86.40;;;;;;5076510;28;20795;-79
2021/05/16 08:21:46;;;;;;;16.75;3.53;;;11.20;85.60;;;;;;5092628;28;20414;-78
2021/05/16 08:24:14;;;;;;;22.10;4.67;;;11.20;86.10;;;;;;5092732;28;20412;-78
2021/05/16 08:26:40;;;;;;;16.23;3.75;;;11.20;87.00;;;;;;5092185;28;20385;-79
2021/05/16 08:29:36;;;;;;;16.35;3.30;;;11.00;86.80;;;;;;5108089;28;20381;-78
2021/05/16 08:32:06;;;;;;;14.23;3.22;;;11.10;86.50;;;;;;5092592;28;20402;-79
2021/05/16 08:34:32;;;;;;;18.25;3.00;;;10.90;85.80;;;;;;5092055;28;20382;-79
2021/05/16 08:36:57;;;;;;;18.77;3.22;;;11.00;85.60;;;;;;5091892;28;20791;-80
2021/05/16 08:39:23;;;;;;;19.55;3.42;;;11.30;85.10;;;;;;5092240;28;20405;-80
2021/05/16 08:41:49;;;;;;;16.90;3.20;;;11.40;84.50;;;;;;5074194;28;20481;-79
2021/05/16 08:44:14;;;;;;;18.33;3.83;;;11.80;84.00;;;;;;5092322;28;20749;-79
2021/05/16 08:46:41;;;;;;;11.87;3.07;;;11.70;83.10;;;;;;5091852;28;20370;-78
2021/05/16 08:49:07;;;;;;;16.52;2.95;;;11.50;83.50;;;;;;5073915;28;20472;-79
2021/05/16 08:51:34;;;;;;;12.27;3.00;;;11.30;84.70;;;;;;5091704;28;20485;-78
2021/05/16 08:54:00;;;;;;;16.20;3.65;;;11.40;85.50;;;;;;5074129;28;20390;-78
2021/05/16 08:56:25;;;;;;;16.80;3.50;;;11.50;84.30;;;;;;5107169;28;20870;-80
2021/05/16 08:58:51;;;;;;;14.03;2.83;;;11.60;84.90;;;;;;5073636;28;20928;-78
2021/05/16 09:01:22;;;;;;;17.87;2.40;;;11.80;82.40;;;;;;5091619;28;20374;-78
2021/05/16 09:03:50;;;;;;;16.60;2.95;;;11.80;82.50;;;;;;5073767;28;20465;-75
2021/05/16 09:06:16;;;;;;;13.13;2.92;;;11.70;80.70;;;;;;5091365;28;20379;-75
2021/05/16 09:08:42;;;;;;;12.20;2.67;;;11.60;83.00;;;;;;5090799;28;20443;-75
2021/05/16 09:11:08;;;;;;;17.83;3.58;;;11.50;85.60;;;;;;5091349;28;20423;-77
2021/05/16 09:13:35;;;;;;;13.30;2.90;;;11.50;85.60;;;;;;5073318;28;20477;-76
2021/05/16 09:16:28;;;;;;;13.18;2.60;;;11.30;85.30;;;;;;5091292;28;20477;-75
2021/05/16 09:18:55;;;;;;;10.73;2.50;;;11.40;84.50;;;;;;5069610;28;20482;-75
2021/05/16 09:21:33;;;;;;;14.80;2.60;;;11.50;84.70;;;;;;5092033;28;20497;-76
2021/05/16 09:24:01;;;;;;;8.43;2.13;;;11.60;83.60;;;;;;5091343;28;20457;-77
2021/05/16 09:26:27;;;;;;;10.30;2.67;;;11.60;83.40;;;;;;5090497;28;20422;-75
2021/05/16 09:28:54;;;;;;;8.55;2.50;;;11.40;86.20;;;;;;5090749;28;20467;-76
2021/05/16 09:31:33;;;;;;;13.07;2.78;;;11.20;86.50;;;;;;5091741;28;20398;-76
2021/05/16 09:34:04;;;;;;;8.55;2.40;;;11.10;88.80;;;;;;5091232;28;20473;-75
2021/05/16 09:36:33;;;;;;;8.70;2.80;;;11.30;88.30;;;;;;5090535;28;20696;-80
2021/05/16 09:39:19;;;;;;;9.50;2.85;;;12.00;87.00;;;;;;5090938;28;20374;-73
2021/05/16 09:41:58;;;;;;;10.57;2.40;;;12.30;84.80;;;;;;5091209;28;20727;-76
2021/05/16 09:44:42;;;;;;;8.40;2.70;;;12.10;83.70;;;;;;5091405;28;20385;-75
2021/05/16 09:47:27;;;;;;;10.30;2.10;;;12.70;83.30;;;;;;5072137;28;20443;-75
2021/05/16 09:49:59;;;;;;;11.82;3.05;;;12.40;81.30;;;;;;5072995;28;20936;-76
2021/05/16 09:52:26;;;;;;;8.88;2.20;;;12.20;82.40;;;;;;5072815;28;20386;-72
2021/05/16 09:55:00;;;;;;;8.30;1.90;;;12.70;81.20;;;;;;5072903;28;20732;-73
2021/05/16 09:57:28;;;;;;;16.80;3.30;;;12.90;78.60;;;;;;5072266;28;20386;-76
2021/05/16 09:59:55;;;;;;;11.68;3.17;;;12.90;78.10;;;;;;5072124;28;20386;-75
